America — WDE6770 — position and weather

sailwx.info

Track history (hours):
 
Tides and Currents Weather Stations Pressure Air Temp Water Temp Dewpoint Dewpoint Depression Visibility Wind Speed Wind Dir Waves Ship Positions

America

Owner: Foss Maritime Company, Seattle, WA. More information available from US FCC via Universal Licensing System and Coast Guard Vessel Documentation Center.

Last reported at 2017-Dec-17 15:30 UTC. Time now 2017-Dec-17 15:52 UTC.
Position N 37°54' W 122°22'.

Length 30 m; draft 5.2 m.

Type: Tug. MMSI: 367384610.

Date/timePositionNaut miles runAvg speedWind from/ knotsBaromVisibWave heightAir tempDewpointWater temp
2017-Dec-17 15:30N 37°54' W 122°22'0 0.0
2017-Dec-17 15:00N 37°54' W 122°22'0 0.0
2017-Dec-17 14:30N 37°54' W 122°22'0 0.0
2017-Dec-17 14:00N 37°54' W 122°22'0 0.0
2017-Dec-17 13:30N 37°54' W 122°22'0 0.0
2017-Dec-17 13:00N 37°54' W 122°22'0 0.0
2017-Dec-17 12:30N 37°54' W 122°22'0 0.0
2017-Dec-17 12:00N 37°54' W 122°22'0 0.0
2017-Dec-17 11:30N 37°54' W 122°22'0 0.0
2017-Dec-17 11:00N 37°54' W 122°22'0 0.0
2017-Dec-17 10:30N 37°54' W 122°22'0 0.0
2017-Dec-17 10:00N 37°54' W 122°22'0 0.0
2017-Dec-17 09:30N 37°54' W 122°22'0 0.0
2017-Dec-17 09:00N 37°54' W 122°22'0 0.0
2017-Dec-17 08:30N 37°54' W 122°22'0 0.0
2017-Dec-17 08:00N 37°54' W 122°22'0 0.0
2017-Dec-17 07:30N 37°54' W 122°22'0 0.0
2017-Dec-17 07:00N 37°54' W 122°22'0 0.0
2017-Dec-17 06:30N 37°54' W 122°22'0 0.0
2017-Dec-17 05:54N 37°54' W 122°22'0 0.0
2017-Dec-17 05:30N 37°54' W 122°22'0 0.0
2017-Dec-17 04:51N 37°54' W 122°22'0 0.0
2017-Dec-17 04:30N 37°54' W 122°22'0 0.0
2017-Dec-17 04:00N 37°54' W 122°22'0 0.0
2017-Dec-17 03:30N 37°54' W 122°22'1 1.2
2017-Dec-17 03:00N 37°54' W 122°23'0 0.6
2017-Dec-17 02:30N 37°54' W 122°23'1 2.7
2017-Dec-17 02:00N 37°54' W 122°22'0 0.2
2017-Dec-17 01:30N 37°55' W 122°22'0 0.9
2017-Dec-17 01:00N 37°54' W 122°22'0 0.0
2017-Dec-17 00:30N 37°54' W 122°22'0 0.0
2017-Dec-17 00:00N 37°54' W 122°22'0 0.0
2017-Dec-16 23:30N 37°54' W 122°22'0 0.0
2017-Dec-16 23:00N 37°54' W 122°22'0 0.0
2017-Dec-16 22:30N 37°54' W 122°22'0 0.0
2017-Dec-16 22:00N 37°54' W 122°22'0 0.0
2017-Dec-16 21:30N 37°54' W 122°22'0 0.0
2017-Dec-16 21:00N 37°54' W 122°22'0 0.0
2017-Dec-16 20:30N 37°54' W 122°22'2 4.1
2017-Dec-16 20:00N 37°55' W 122°25'0 0.1
2017-Dec-16 19:30N 37°55' W 122°25'2 3.3
2017-Dec-16 19:00N 37°57' W 122°26'4 8.7
2017-Dec-16 18:30N 38°01' W 122°24'5 9.7
2017-Dec-16 18:00N 38°03' W 122°19'4 7.2
2017-Dec-16 17:29N 38°04' W 122°14'3 6.5
2017-Dec-16 17:00N 38°03' W 122°10'4 5.7
2017-Dec-16 16:17N 38°03' W 122°05'0 0.0
2017-Dec-16 15:50N 38°03' W 122°05'2 2.1
2017-Dec-16 14:40N 38°02' W 122°08'0 0.0
2017-Dec-16 14:28N 38°02' W 122°08'0 0.0
2017-Dec-16 13:58N 38°02' W 122°08'0 0.0
2017-Dec-16 13:28N 38°02' W 122°08'0 0.0
2017-Dec-16 12:58N 38°02' W 122°08'0 0.0
2017-Dec-16 12:28N 38°02' W 122°08'0 0.0
2017-Dec-16 11:58N 38°02' W 122°08'0 0.0
2017-Dec-16 11:28N 38°02' W 122°08'0 0.0
2017-Dec-16 10:58N 38°02' W 122°08'0 0.0
2017-Dec-16 10:28N 38°02' W 122°08'0 0.0
2017-Dec-16 09:58N 38°02' W 122°08'0 0.0
2017-Dec-16 09:28N 38°02' W 122°08'0 0.0
2017-Dec-16 08:58N 38°02' W 122°08'0 0.0
2017-Dec-16 08:28N 38°02' W 122°08'0 0.0
2017-Dec-16 07:52N 38°02' W 122°08'0 0.0
2017-Dec-16 07:28N 38°02' W 122°08'0 0.0
2017-Dec-16 06:52N 38°02' W 122°08'0 0.0
2017-Dec-16 06:28N 38°02' W 122°08'0 0.0
2017-Dec-16 05:58N 38°02' W 122°08'0 0.0
2017-Dec-16 05:28N 38°02' W 122°08'0 0.0
2017-Dec-16 04:58N 38°02' W 122°08'0 0.0
2017-Dec-16 04:28N 38°02' W 122°08'0 0.0
2017-Dec-16 03:58N 38°02' W 122°08'0 0.0
2017-Dec-16 03:28N 38°02' W 122°08'0 0.0
2017-Dec-16 02:52N 38°02' W 122°08'0 0.0
2017-Dec-16 02:22N 38°02' W 122°08'0 0.0
2017-Dec-16 01:58N 38°02' W 122°08'0 0.0
2017-Dec-16 01:28N 38°02' W 122°08'0 0.0
2017-Dec-16 00:58N 38°02' W 122°08'0 0.0
2017-Dec-16 00:28N 38°02' W 122°08'0 0.0
2017-Dec-15 23:58N 38°02' W 122°08'0 0.0
2017-Dec-15 22:28N 38°02' W 122°08'0 0.0
2017-Dec-15 21:58N 38°02' W 122°08'0 0.0
2017-Dec-15 21:28N 38°02' W 122°08'0 0.0
2017-Dec-15 20:58N 38°02' W 122°08'0 0.0
2017-Dec-15 20:16N 38°02' W 122°08'0 0.0
2017-Dec-15 19:58N 38°02' W 122°08'0 0.0
2017-Dec-15 19:16N 38°02' W 122°08'0 0.0
2017-Dec-15 18:00N 38°02' W 122°08'2 3.7
2017-Dec-15 17:22N 38°03' W 122°05'0 0.0
2017-Dec-15 16:51N 38°03' W 122°05'0 0.4
2017-Dec-15 16:25N 38°03' W 122°06'2 4.1
2017-Dec-15 15:57N 38°02' W 122°08'3 7.6
2017-Dec-15 15:30N 38°03' W 122°12'4 8.4
2017-Dec-15 15:00N 38°04' W 122°17'5 9.9
2017-Dec-15 14:30N 38°02' W 122°23'611.0
2017-Dec-15 14:00N 37°57' W 122°27'5 9.8
2017-Dec-15 13:30N 37°52' W 122°25'3 7.0
2017-Dec-15 13:01N 37°49' W 122°26'4 8.1
2017-Dec-15 12:30N 37°49' W 122°31'1 1.0
2017-Dec-15 12:00N 37°49' W 122°31'2 4.3
2017-Dec-15 11:31N 37°49' W 122°28'510.9
2017-Dec-15 11:00N 37°54' W 122°25'2 3.6
2017-Dec-15 10:25N 37°54' W 122°22'0 0.0
2017-Dec-15 09:58N 37°54' W 122°22'0 0.0
2017-Dec-15 09:28N 37°54' W 122°22'0 1.0
2017-Dec-15 09:00N 37°55' W 122°22'0 0.3
2017-Dec-15 08:30N 37°54' W 122°22'2 3.3
2017-Dec-15 08:01N 37°54' W 122°24'1 2.9
2017-Dec-15 07:30N 37°53' W 122°25'2 3.2
2017-Dec-15 07:00N 37°55' W 122°25'1 1.1
2017-Dec-15 06:30N 37°55' W 122°25'0 0.0
2017-Dec-15 05:59N 37°55' W 122°25'0 0.1
2017-Dec-15 05:30N 37°55' W 122°25'0 0.0
2017-Dec-15 05:00N 37°55' W 122°25'0 0.7
2017-Dec-15 04:30N 37°55' W 122°25'4 8.0
2017-Dec-15 04:00N 37°51' W 122°24'7 4.4
2017-Dec-15 02:31N 37°48' W 122°17'1 0.8
2017-Dec-15 01:01N 37°48' W 122°19'0 0.1
2017-Dec-15 00:30N 37°48' W 122°19'9 1.5
2017-Dec-14 18:27N 37°55' W 122°24'0 0.0
2017-Dec-14 18:00N 37°55' W 122°24'0 0.0
2017-Dec-14 17:30N 37°55' W 122°24'0 0.1
2017-Dec-14 17:00N 37°55' W 122°25'0 0.4
2017-Dec-14 16:30N 37°55' W 122°25'0 0.1
2017-Dec-14 16:00N 37°55' W 122°25'2 1.9
2017-Dec-14 15:00N 37°54' W 122°25'2 3.2
2017-Dec-14 14:27N 37°55' W 122°25'0 0.1
2017-Dec-14 13:57N 37°55' W 122°24'0 0.1
2017-Dec-14 13:30N 37°55' W 122°25'0 0.0
2017-Dec-14 13:00N 37°55' W 122°25'0 0.0
2017-Dec-14 12:30N 37°55' W 122°25'0 0.0
2017-Dec-14 12:00N 37°55' W 122°25'0 0.0
2017-Dec-14 11:30N 37°55' W 122°25'0 0.0
2017-Dec-14 11:00N 37°55' W 122°25'0 0.1
2017-Dec-14 10:30N 37°55' W 122°24'0 0.0
2017-Dec-14 10:00N 37°55' W 122°24'0 0.1
2017-Dec-14 09:30N 37°55' W 122°25'0 0.1
2017-Dec-14 09:00N 37°55' W 122°24'0 0.1
2017-Dec-14 08:30N 37°55' W 122°25'0 0.1
2017-Dec-14 08:00N 37°55' W 122°24'0 0.1
2017-Dec-14 07:30N 37°55' W 122°25'0 0.0
2017-Dec-14 06:57N 37°55' W 122°25'0 0.0
2017-Dec-14 06:30N 37°55' W 122°25'0 0.1
2017-Dec-14 06:00N 37°55' W 122°24'0 0.1
2017-Dec-14 05:30N 37°55' W 122°25'0 0.0
2017-Dec-14 04:57N 37°55' W 122°25'0 0.0
2017-Dec-14 04:27N 37°55' W 122°25'0 0.0
2017-Dec-14 03:57N 37°55' W 122°25'0 0.0
2017-Dec-14 03:30N 37°55' W 122°25'0 0.3
2017-Dec-14 03:01N 37°55' W 122°25'1 1.2
2017-Dec-14 02:31N 37°56' W 122°25'0 0.1
2017-Dec-14 02:01N 37°56' W 122°25'0 0.4
2017-Dec-14 01:31N 37°55' W 122°25'0 0.5
2017-Dec-14 00:58N 37°55' W 122°25'0 0.0
2017-Dec-14 00:28N 37°55' W 122°25'0 0.0
2017-Dec-13 23:58N 37°55' W 122°25'0 0.0
2017-Dec-13 23:28N 37°55' W 122°25'0 0.0
2017-Dec-13 22:58N 37°55' W 122°25'0 0.0
2017-Dec-13 22:28N 37°55' W 122°25'0 0.0
2017-Dec-13 21:58N 37°55' W 122°25'0 0.1
2017-Dec-13 21:28N 37°55' W 122°24'0 0.1
2017-Dec-13 20:58N 37°55' W 122°25'0 0.1
2017-Dec-13 20:28N 37°55' W 122°24'0 0.1
2017-Dec-13 19:58N 37°55' W 122°25'0 0.0
2017-Dec-13 19:28N 37°55' W 122°25'0 0.0
2017-Dec-13 18:58N 37°55' W 122°25'0 0.0
2017-Dec-13 18:28N 37°55' W 122°25'0 0.0
2017-Dec-13 17:58N 37°55' W 122°25'0 0.1
2017-Dec-13 17:30N 37°55' W 122°24'4 7.8
2017-Dec-13 17:00N 37°51' W 122°24'3 5.6
2017-Dec-13 16:30N 37°49' W 122°22'0 0.0
2017-Dec-13 16:00N 37°49' W 122°22'2 4.5
2017-Dec-13 15:30N 37°51' W 122°23'3 5.5
2017-Dec-13 15:00N 37°53' W 122°25'2 3.7
2017-Dec-13 14:30N 37°54' W 122°23'1 2.1
2017-Dec-13 14:00N 37°55' W 122°22'0 0.2
2017-Dec-13 13:30N 37°55' W 122°22'3 5.7
2017-Dec-13 13:00N 37°53' W 122°25'5 9.4
2017-Dec-13 12:30N 37°49' W 122°22'1 2.8
2017-Dec-13 12:00N 37°49' W 122°20'0 0.0
2017-Dec-13 11:24N 37°49' W 122°20'0 0.0
2017-Dec-13 11:00N 37°49' W 122°20'0 0.0
2017-Dec-13 10:30N 37°49' W 122°20'0 0.0
2017-Dec-13 09:57N 37°49' W 122°20'0 0.0
2017-Dec-13 09:30N 37°49' W 122°20'0 0.0
2017-Dec-13 09:00N 37°49' W 122°20'0 0.0
2017-Dec-13 08:30N 37°49' W 122°20'0 0.0
2017-Dec-13 08:00N 37°49' W 122°20'0 0.0
2017-Dec-13 07:30N 37°49' W 122°20'0 0.0
2017-Dec-13 07:00N 37°49' W 122°20'1 1.3
2017-Dec-13 06:30N 37°48' W 122°20'2 4.3
2017-Dec-13 06:01N 37°48' W 122°17'1 2.0
2017-Dec-13 05:31N 37°48' W 122°19'2 4.9
2017-Dec-13 05:01N 37°48' W 122°22'3 5.9
2017-Dec-13 04:31N 37°51' W 122°24'5 9.1
2017-Dec-13 04:00N 37°55' W 122°25'0 0.4
2017-Dec-13 03:25N 37°55' W 122°25'0 0.0
2017-Dec-13 03:01N 37°55' W 122°25'0 0.7
2017-Dec-13 02:30N 37°56' W 122°25'0 0.5
2017-Dec-13 02:01N 37°55' W 122°25'2 4.6
2017-Dec-13 01:31N 37°53' W 122°25'2 3.3
2017-Dec-13 01:00N 37°54' W 122°23'1 1.8
2017-Dec-13 00:31N 37°54' W 122°22'0 0.0
2017-Dec-13 00:01N 37°54' W 122°22'0 0.0
2017-Dec-12 23:30N 37°54' W 122°22'0 0.0
2017-Dec-12 23:00N 37°54' W 122°22'0 0.0
2017-Dec-12 22:30N 37°54' W 122°22'0 0.0
2017-Dec-12 22:00N 37°54' W 122°22'0 0.0
2017-Dec-12 21:30N 37°54' W 122°22'0 0.0
2017-Dec-12 21:00N 37°54' W 122°22'0 0.0
2017-Dec-12 20:31N 37°54' W 122°22'0 1.0
2017-Dec-12 20:00N 37°54' W 122°23'3 5.0
2017-Dec-12 19:30N 37°52' W 122°24'510.2
2017-Dec-12 19:01N 37°48' W 122°20'2 3.6
2017-Dec-12 18:30N 37°48' W 122°18'0 0.5
2017-Dec-12 18:01N 37°48' W 122°17'0 0.0
2017-Dec-12 17:30N 37°48' W 122°17'0 0.0
2017-Dec-12 17:01N 37°48' W 122°17'2 5.0
2017-Dec-12 16:31N 37°48' W 122°20'5 9.0
2017-Dec-12 16:00N 37°52' W 122°24'4 7.8
2017-Dec-12 15:30N 37°55' W 122°25'3 6.0
2017-Dec-12 15:00N 37°54' W 122°22'1 2.0
2017-Dec-12 14:30N 37°55' W 122°22'1 1.9
2017-Dec-12 14:01N 37°54' W 122°22'3 6.2
2017-Dec-12 13:30N 37°51' W 122°24'5 9.6
2017-Dec-12 13:01N 37°47' W 122°22'1 2.5
2017-Dec-12 12:30N 37°45' W 122°22'3 5.4
2017-Dec-12 12:00N 37°48' W 122°23'3 6.2
2017-Dec-12 11:31N 37°51' W 122°24'3 6.7
2017-Dec-12 11:00N 37°54' W 122°24'1 2.0
2017-Dec-12 10:28N 37°54' W 122°22'0 0.0
2017-Dec-12 09:58N 37°54' W 122°22'0 0.0
2017-Dec-12 09:28N 37°54' W 122°22'0 0.0
2017-Dec-12 08:59N 37°54' W 122°22'0 0.0
2017-Dec-12 08:29N 37°54' W 122°22'0 0.0
2017-Dec-12 07:58N 37°54' W 122°22'0 0.0
2017-Dec-12 07:29N 37°54' W 122°22'0 0.0
2017-Dec-12 06:55N 37°54' W 122°22'0 0.0
2017-Dec-12 06:28N 37°54' W 122°22'0 0.0
2017-Dec-12 05:58N 37°54' W 122°22'0 0.0
2017-Dec-12 05:28N 37°54' W 122°22'0 0.0
2017-Dec-12 04:58N 37°54' W 122°22'0 0.0
2017-Dec-12 04:28N 37°54' W 122°22'0 0.0
2017-Dec-12 03:58N 37°54' W 122°22'0 0.0
2017-Dec-12 03:28N 37°54' W 122°22'0 0.0
2017-Dec-12 02:58N 37°54' W 122°22'0 0.0
2017-Dec-12 02:28N 37°54' W 122°22'0 0.0
2017-Dec-12 01:58N 37°54' W 122°22'0 0.0
2017-Dec-12 01:28N 37°54' W 122°22'0 0.0
2017-Dec-12 00:58N 37°54' W 122°22'0 0.0
2017-Dec-12 00:28N 37°54' W 122°22'0 0.0
2017-Dec-11 23:58N 37°54' W 122°22'0 0.0
2017-Dec-11 23:25N 37°54' W 122°22'0 0.0
2017-Dec-11 22:58N 37°54' W 122°22'0 0.0
2017-Dec-11 22:25N 37°54' W 122°22'0 0.0
2017-Dec-11 21:58N 37°54' W 122°22'0 0.0
2017-Dec-11 21:28N 37°54' W 122°22'0 0.0
2017-Dec-11 20:55N 37°54' W 122°22'0 0.0
2017-Dec-11 20:28N 37°54' W 122°22'0 0.0
2017-Dec-11 19:58N 37°54' W 122°22'0 0.0
2017-Dec-11 19:28N 37°54' W 122°22'0 0.0
2017-Dec-11 18:58N 37°54' W 122°22'0 0.0
2017-Dec-11 18:28N 37°54' W 122°22'0 0.0
2017-Dec-11 17:58N 37°54' W 122°22'0 0.1
2017-Dec-11 17:31N 37°54' W 122°22'1 1.8
2017-Dec-11 17:00N 37°55' W 122°22'0 0.2
2017-Dec-11 16:30N 37°55' W 122°22'0 0.4
2017-Dec-11 16:00N 37°55' W 122°22'3 5.6
2017-Dec-11 15:30N 37°54' W 122°25'510.7
2017-Dec-11 15:00N 37°49' W 122°22'3 6.5
2017-Dec-11 14:30N 37°48' W 122°18'0 0.9
2017-Dec-11 14:00N 37°48' W 122°17'1 2.4
2017-Dec-11 13:30N 37°48' W 122°19'3 6.1
2017-Dec-11 13:00N 37°47' W 122°23'1 2.2
2017-Dec-11 12:31N 37°48' W 122°22'1 2.9
2017-Dec-11 12:00N 37°49' W 122°20'0 0.0
2017-Dec-11 11:30N 37°49' W 122°20'0 0.0
2017-Dec-11 11:00N 37°49' W 122°20'0 0.0
2017-Dec-11 10:30N 37°49' W 122°20'0 0.0
2017-Dec-11 10:00N 37°49' W 122°20'0 0.0
2017-Dec-11 09:30N 37°49' W 122°20'0 0.0
2017-Dec-11 09:00N 37°49' W 122°20'0 0.0
2017-Dec-11 08:30N 37°49' W 122°20'0 0.0
2017-Dec-11 08:00N 37°49' W 122°20'0 0.0
2017-Dec-11 07:30N 37°49' W 122°20'0 0.0
2017-Dec-11 07:00N 37°49' W 122°20'0 0.0
2017-Dec-11 06:30N 37°49' W 122°20'0 0.0
2017-Dec-11 06:00N 37°49' W 122°20'0 0.0
2017-Dec-11 05:30N 37°49' W 122°20'0 0.0
2017-Dec-11 05:00N 37°49' W 122°20'0 0.0
2017-Dec-11 04:30N 37°49' W 122°20'0 0.0
2017-Dec-11 04:00N 37°49' W 122°20'0 0.0
2017-Dec-11 03:30N 37°49' W 122°20'0 0.0
2017-Dec-11 03:00N 37°49' W 122°20'0 0.0
2017-Dec-11 02:30N 37°49' W 122°20'0 0.0
2017-Dec-11 02:00N 37°49' W 122°20'0 0.0
2017-Dec-11 01:30N 37°49' W 122°20'1 1.9
2017-Dec-11 01:01N 37°48' W 122°19'0 0.1
2017-Dec-11 00:30N 37°48' W 122°19'4 8.6
2017-Dec-11 00:00N 37°51' W 122°23'3 6.9
2017-Dec-10 23:30N 37°54' W 122°24'1 2.3
2017-Dec-10 23:00N 37°54' W 122°22'0 0.0
2017-Dec-10 22:30N 37°54' W 122°22'0 0.0
2017-Dec-10 22:00N 37°54' W 122°22'0 0.0
2017-Dec-10 21:30N 37°54' W 122°22'0 0.0
2017-Dec-10 21:00N 37°54' W 122°22'0 0.0
2017-Dec-10 20:30N 37°54' W 122°22'0 0.0
2017-Dec-10 20:00N 37°54' W 122°22'0 0.0
2017-Dec-10 19:30N 37°54' W 122°22'0 0.0
2017-Dec-10 19:00N 37°54' W 122°22'0 0.0
2017-Dec-10 18:30N 37°54' W 122°22'0 0.0
2017-Dec-10 18:00N 37°54' W 122°22'0 0.0
2017-Dec-10 17:30N 37°54' W 122°22'0 0.0
2017-Dec-10 17:00N 37°54' W 122°22'0 0.0
2017-Dec-10 16:30N 37°54' W 122°22'0 0.0
2017-Dec-10 16:00N 37°54' W 122°22'0 0.0
2017-Dec-10 15:30N 37°54' W 122°22'1 1.4
2017-Dec-10 15:01N 37°54' W 122°23'3 6.4
2017-Dec-10 14:30N 37°51' W 122°23'4 8.8
2017-Dec-10 14:00N 37°48' W 122°19'0 0.0
2017-Dec-10 13:30N 37°48' W 122°19'2 3.1
2017-Dec-10 13:00N 37°48' W 122°17'1 2.3
2017-Dec-10 12:30N 37°48' W 122°19'3 6.7
2017-Dec-10 12:01N 37°48' W 122°23'1 1.1
2017-Dec-10 11:28N 37°48' W 122°24'0 0.0
2017-Dec-10 10:58N 37°48' W 122°24'0 0.0
2017-Dec-10 10:25N 37°48' W 122°24'0 0.0
2017-Dec-10 09:55N 37°48' W 122°24'0 0.0
2017-Dec-10 09:28N 37°48' W 122°24'0 0.0
2017-Dec-10 08:58N 37°48' W 122°24'0 0.0
2017-Dec-10 08:28N 37°48' W 122°24'0 0.0
2017-Dec-10 07:58N 37°48' W 122°24'0 0.0
2017-Dec-10 07:25N 37°48' W 122°24'0 0.0
2017-Dec-10 06:55N 37°48' W 122°24'0 0.0
2017-Dec-10 06:28N 37°48' W 122°24'0 0.0
2017-Dec-10 05:58N 37°48' W 122°24'2 3.4
2017-Dec-10 05:30N 37°49' W 122°26'4 8.3
2017-Dec-10 05:00N 37°49' W 122°31'1 1.2
2017-Dec-10 04:31N 37°48' W 122°31'5 9.0
2017-Dec-10 04:00N 37°50' W 122°25'3 6.9
2017-Dec-10 03:30N 37°54' W 122°26'0 0.3
2017-Dec-10 03:01N 37°54' W 122°26'1 2.7
2017-Dec-10 02:30N 37°55' W 122°25'1 1.1
2017-Dec-10 01:59N 37°55' W 122°25'0 0.5
2017-Dec-10 01:30N 37°55' W 122°25'0 0.0
2017-Dec-10 01:00N 37°55' W 122°25'0 0.0
2017-Dec-10 00:30N 37°55' W 122°25'1 2.2
2017-Dec-10 00:00N 37°54' W 122°25'611.0
2017-Dec-09 23:30N 37°50' W 122°22'2 3.6
2017-Dec-09 23:01N 37°49' W 122°20'1 2.9
2017-Dec-09 22:30N 37°49' W 122°21'611.6
2017-Dec-09 22:00N 37°54' W 122°25'2 3.2
2017-Dec-09 21:30N 37°56' W 122°25'0 0.1
2017-Dec-09 21:01N 37°56' W 122°25'1 1.5
2017-Dec-09 20:30N 37°55' W 122°25'3 5.3
2017-Dec-09 20:00N 37°52' W 122°25'2 4.9
2017-Dec-09 19:31N 37°50' W 122°27'4 7.5
2017-Dec-09 19:00N 37°48' W 122°31'1 1.4
2017-Dec-09 18:30N 37°48' W 122°30'0 0.4
2017-Dec-09 18:00N 37°48' W 122°30'4 8.3
2017-Dec-09 17:30N 37°50' W 122°26'3 4.2
2017-Dec-09 16:44N 37°49' W 122°22'0 0.2
2017-Dec-09 16:29N 37°49' W 122°22'0 0.0
2017-Dec-09 15:56N 37°49' W 122°22'0 0.0
2017-Dec-09 15:26N 37°49' W 122°22'0 0.1
2017-Dec-09 14:56N 37°49' W 122°22'0 0.5
2017-Dec-09 14:30N 37°49' W 122°21'3 6.0
2017-Dec-09 14:00N 37°48' W 122°18'0 0.7
2017-Dec-09 13:30N 37°48' W 122°18'1 2.5
2017-Dec-09 13:01N 37°48' W 122°19'0 0.1
2017-Dec-09 12:30N 37°48' W 122°19'5 9.2
2017-Dec-09 12:00N 37°51' W 122°23'3 6.8
2017-Dec-09 11:31N 37°54' W 122°24'1 2.7
2017-Dec-09 11:00N 37°54' W 122°22'0 0.0
2017-Dec-09 10:31N 37°54' W 122°22'0 0.0
2017-Dec-09 10:00N 37°54' W 122°22'0 0.0
2017-Dec-09 09:30N 37°54' W 122°22'0 0.1
2017-Dec-09 09:00N 37°54' W 122°22'0 0.1
2017-Dec-09 08:31N 37°54' W 122°22'0 0.0
2017-Dec-09 08:00N 37°54' W 122°22'0 0.0
2017-Dec-09 07:31N 37°54' W 122°22'0 0.0
2017-Dec-09 07:01N 37°54' W 122°22'0 0.0
2017-Dec-09 06:30N 37°54' W 122°22'0 0.0
2017-Dec-09 06:00N 37°54' W 122°22'0 0.0
2017-Dec-09 05:30N 37°54' W 122°22'0 0.0
2017-Dec-09 05:00N 37°54' W 122°22'0 0.0
2017-Dec-09 04:30N 37°54' W 122°22'0 0.0
2017-Dec-09 04:00N 37°54' W 122°22'0 0.0
2017-Dec-09 03:30N 37°54' W 122°22'1 2.4
2017-Dec-09 03:00N 37°54' W 122°24'1 2.6
2017-Dec-09 02:30N 37°56' W 122°25'1 1.3
2017-Dec-09 02:00N 37°55' W 122°25'2 3.8
2017-Dec-09 01:30N 37°54' W 122°22'0 0.1
2017-Dec-09 01:00N 37°54' W 122°22'0 0.0
2017-Dec-09 00:30N 37°54' W 122°22'0 0.0
2017-Dec-09 00:00N 37°54' W 122°22'0 0.0
2017-Dec-08 23:30N 37°54' W 122°22'1 2.2
2017-Dec-08 23:00N 37°54' W 122°24'1 2.6
2017-Dec-08 22:30N 37°55' W 122°25'1 2.0
2017-Dec-08 22:00N 37°56' W 122°25'0 0.2
2017-Dec-08 21:30N 37°56' W 122°25'0 0.2
2017-Dec-08 21:00N 37°56' W 122°25'0 0.8
2017-Dec-08 20:30N 37°55' W 122°25'0 0.2
2017-Dec-08 20:00N 37°55' W 122°25'1 2.6
2017-Dec-08 19:30N 37°54' W 122°25'4 8.6
2017-Dec-08 19:00N 37°50' W 122°24'5 9.1
2017-Dec-08 18:30N 37°49' W 122°30'1 1.4
2017-Dec-08 18:00N 37°48' W 122°30'0 0.4
2017-Dec-08 17:30N 37°48' W 122°30'4 8.1
2017-Dec-08 17:00N 37°52' W 122°27'4 8.6
2017-Dec-08 16:30N 37°55' W 122°25'0 0.0
2017-Dec-08 16:00N 37°55' W 122°25'0 0.0
2017-Dec-08 15:30N 37°55' W 122°25'0 0.0
2017-Dec-08 15:00N 37°55' W 122°25'0 0.4
2017-Dec-08 14:29N 37°55' W 122°25'0 0.4
2017-Dec-08 14:00N 37°55' W 122°25'1 2.5
2017-Dec-08 13:30N 37°54' W 122°25'1 1.9
2017-Dec-08 13:00N 37°53' W 122°25'2 4.4
2017-Dec-08 12:29N 37°55' W 122°25'0 0.0
2017-Dec-08 11:59N 37°55' W 122°25'0 0.0
2017-Dec-08 11:29N 37°55' W 122°25'0 0.1
2017-Dec-08 10:59N 37°55' W 122°24'0 0.1
2017-Dec-08 10:29N 37°55' W 122°25'0 0.0
2017-Dec-08 09:59N 37°55' W 122°25'0 0.0
2017-Dec-08 09:29N 37°55' W 122°25'0 0.0
2017-Dec-08 08:59N 37°55' W 122°25'0 0.0
2017-Dec-08 08:29N 37°55' W 122°25'0 0.0
2017-Dec-08 07:59N 37°55' W 122°25'0 0.0
2017-Dec-08 07:29N 37°55' W 122°25'0 0.0
2017-Dec-08 06:59N 37°55' W 122°25'0 0.1
2017-Dec-08 06:29N 37°55' W 122°24'0 0.1
2017-Dec-08 05:59N 37°55' W 122°25'0 0.0
2017-Dec-08 05:29N 37°55' W 122°25'0 0.0
2017-Dec-08 04:59N 37°55' W 122°25'0 0.1
2017-Dec-08 04:29N 37°55' W 122°24'0 0.1
2017-Dec-08 03:59N 37°55' W 122°25'0 0.0
2017-Dec-08 03:29N 37°55' W 122°25'0 0.1
2017-Dec-08 02:59N 37°55' W 122°24'0 0.1
2017-Dec-08 02:20N 37°55' W 122°25'0 0.0
2017-Dec-08 01:53N 37°55' W 122°25'0 0.0
2017-Dec-08 01:29N 37°55' W 122°25'0 0.0
2017-Dec-08 00:59N 37°55' W 122°25'0 0.0
2017-Dec-08 00:29N 37°55' W 122°25'0 0.0
2017-Dec-08 00:00N 37°55' W 122°25'0 0.0
2017-Dec-07 23:27N 37°55' W 122°25'0 0.0
2017-Dec-07 22:56N 37°55' W 122°25'0 0.0
2017-Dec-07 22:31N 37°55' W 122°25'0 0.0
2017-Dec-07 22:00N 37°55' W 122°25'0 0.0
2017-Dec-07 21:30N 37°55' W 122°25'0 1.0
2017-Dec-07 21:00N 37°56' W 122°25'0 0.3
2017-Dec-07 20:30N 37°56' W 122°25'2 4.4
2017-Dec-07 20:00N 37°53' W 122°25'3 6.5
2017-Dec-07 19:30N 37°50' W 122°27'4 7.6
2017-Dec-07 19:00N 37°48' W 122°31'1 1.5
2017-Dec-07 18:30N 37°48' W 122°30'1 2.3
2017-Dec-07 18:00N 37°49' W 122°29'510.0
2017-Dec-07 17:30N 37°50' W 122°23'1 2.7
2017-Dec-07 17:00N 37°49' W 122°22'0 0.1
2017-Dec-07 16:30N 37°49' W 122°22'0 0.1
2017-Dec-07 16:00N 37°49' W 122°22'0 0.1
2017-Dec-07 15:30N 37°49' W 122°22'  
Track history (hours):
 
Tides and Currents Weather Stations Pressure Air Temp Water Temp Dewpoint Dewpoint Depression Visibility Wind Speed Wind Dir Waves Ship Positions

America

Owner: Foss Maritime Company, Seattle, WA. More information available from US FCC via Universal Licensing System and Coast Guard Vessel Documentation Center.

Last reported at 2017-Dec-17 15:30 UTC. Time now 2017-Dec-17 15:52 UTC.
Position N 37°54' W 122°22'.

Length 30 m; draft 5.2 m.

Type: Tug. MMSI: 367384610.

Date/timePositionNaut miles runAvg speedWind from/ knotsBaromVisibWave heightAir tempDewpointWater temp
2017-Dec-17 15:30N 37°54' W 122°22'0 0.0
2017-Dec-17 15:00N 37°54' W 122°22'0 0.0
2017-Dec-17 14:30N 37°54' W 122°22'0 0.0
2017-Dec-17 14:00N 37°54' W 122°22'0 0.0
2017-Dec-17 13:30N 37°54' W 122°22'0 0.0
2017-Dec-17 13:00N 37°54' W 122°22'0 0.0
2017-Dec-17 12:30N 37°54' W 122°22'0 0.0
2017-Dec-17 12:00N 37°54' W 122°22'0 0.0
2017-Dec-17 11:30N 37°54' W 122°22'0 0.0
2017-Dec-17 11:00N 37°54' W 122°22'0 0.0
2017-Dec-17 10:30N 37°54' W 122°22'0 0.0
2017-Dec-17 10:00N 37°54' W 122°22'0 0.0
2017-Dec-17 09:30N 37°54' W 122°22'0 0.0
2017-Dec-17 09:00N 37°54' W 122°22'0 0.0
2017-Dec-17 08:30N 37°54' W 122°22'0 0.0
2017-Dec-17 08:00N 37°54' W 122°22'0 0.0
2017-Dec-17 07:30N 37°54' W 122°22'0 0.0
2017-Dec-17 07:00N 37°54' W 122°22'0 0.0
2017-Dec-17 06:30N 37°54' W 122°22'0 0.0
2017-Dec-17 05:54N 37°54' W 122°22'0 0.0
2017-Dec-17 05:30N 37°54' W 122°22'0 0.0
2017-Dec-17 04:51N 37°54' W 122°22'0 0.0
2017-Dec-17 04:30N 37°54' W 122°22'0 0.0
2017-Dec-17 04:00N 37°54' W 122°22'0 0.0
2017-Dec-17 03:30N 37°54' W 122°22'1 1.2
2017-Dec-17 03:00N 37°54' W 122°23'0 0.6
2017-Dec-17 02:30N 37°54' W 122°23'1 2.7
2017-Dec-17 02:00N 37°54' W 122°22'0 0.2
2017-Dec-17 01:30N 37°55' W 122°22'0 0.9
2017-Dec-17 01:00N 37°54' W 122°22'0 0.0
2017-Dec-17 00:30N 37°54' W 122°22'0 0.0
2017-Dec-17 00:00N 37°54' W 122°22'0 0.0
2017-Dec-16 23:30N 37°54' W 122°22'0 0.0
2017-Dec-16 23:00N 37°54' W 122°22'0 0.0
2017-Dec-16 22:30N 37°54' W 122°22'0 0.0
2017-Dec-16 22:00N 37°54' W 122°22'0 0.0
2017-Dec-16 21:30N 37°54' W 122°22'0 0.0
2017-Dec-16 21:00N 37°54' W 122°22'0 0.0
2017-Dec-16 20:30N 37°54' W 122°22'2 4.1
2017-Dec-16 20:00N 37°55' W 122°25'0 0.1
2017-Dec-16 19:30N 37°55' W 122°25'2 3.3
2017-Dec-16 19:00N 37°57' W 122°26'4 8.7
2017-Dec-16 18:30N 38°01' W 122°24'5 9.7
2017-Dec-16 18:00N 38°03' W 122°19'4 7.2
2017-Dec-16 17:29N 38°04' W 122°14'3 6.5
2017-Dec-16 17:00N 38°03' W 122°10'4 5.7
2017-Dec-16 16:17N 38°03' W 122°05'0 0.0
2017-Dec-16 15:50N 38°03' W 122°05'2 2.1
2017-Dec-16 14:40N 38°02' W 122°08'0 0.0
2017-Dec-16 14:28N 38°02' W 122°08'0 0.0
2017-Dec-16 13:58N 38°02' W 122°08'0 0.0
2017-Dec-16 13:28N 38°02' W 122°08'0 0.0
2017-Dec-16 12:58N 38°02' W 122°08'0 0.0
2017-Dec-16 12:28N 38°02' W 122°08'0 0.0
2017-Dec-16 11:58N 38°02' W 122°08'0 0.0
2017-Dec-16 11:28N 38°02' W 122°08'0 0.0
2017-Dec-16 10:58N 38°02' W 122°08'0 0.0
2017-Dec-16 10:28N 38°02' W 122°08'0 0.0
2017-Dec-16 09:58N 38°02' W 122°08'0 0.0
2017-Dec-16 09:28N 38°02' W 122°08'0 0.0
2017-Dec-16 08:58N 38°02' W 122°08'0 0.0
2017-Dec-16 08:28N 38°02' W 122°08'0 0.0
2017-Dec-16 07:52N 38°02' W 122°08'0 0.0
2017-Dec-16 07:28N 38°02' W 122°08'0 0.0
2017-Dec-16 06:52N 38°02' W 122°08'0 0.0
2017-Dec-16 06:28N 38°02' W 122°08'0 0.0
2017-Dec-16 05:58N 38°02' W 122°08'0 0.0
2017-Dec-16 05:28N 38°02' W 122°08'0 0.0
2017-Dec-16 04:58N 38°02' W 122°08'0 0.0
2017-Dec-16 04:28N 38°02' W 122°08'0 0.0
2017-Dec-16 03:58N 38°02' W 122°08'0 0.0
2017-Dec-16 03:28N 38°02' W 122°08'0 0.0
2017-Dec-16 02:52N 38°02' W 122°08'0 0.0
2017-Dec-16 02:22N 38°02' W 122°08'0 0.0
2017-Dec-16 01:58N 38°02' W 122°08'0 0.0
2017-Dec-16 01:28N 38°02' W 122°08'0 0.0
2017-Dec-16 00:58N 38°02' W 122°08'0 0.0
2017-Dec-16 00:28N 38°02' W 122°08'0 0.0
2017-Dec-15 23:58N 38°02' W 122°08'0 0.0
2017-Dec-15 22:28N 38°02' W 122°08'0 0.0
2017-Dec-15 21:58N 38°02' W 122°08'0 0.0
2017-Dec-15 21:28N 38°02' W 122°08'0 0.0
2017-Dec-15 20:58N 38°02' W 122°08'0 0.0
2017-Dec-15 20:16N 38°02' W 122°08'0 0.0
2017-Dec-15 19:58N 38°02' W 122°08'0 0.0
2017-Dec-15 19:16N 38°02' W 122°08'0 0.0
2017-Dec-15 18:00N 38°02' W 122°08'2 3.7
2017-Dec-15 17:22N 38°03' W 122°05'0 0.0
2017-Dec-15 16:51N 38°03' W 122°05'0 0.4
2017-Dec-15 16:25N 38°03' W 122°06'2 4.1
2017-Dec-15 15:57N 38°02' W 122°08'3 7.6
2017-Dec-15 15:30N 38°03' W 122°12'4 8.4
2017-Dec-15 15:00N 38°04' W 122°17'5 9.9
2017-Dec-15 14:30N 38°02' W 122°23'611.0
2017-Dec-15 14:00N 37°57' W 122°27'5 9.8
2017-Dec-15 13:30N 37°52' W 122°25'3 7.0
2017-Dec-15 13:01N 37°49' W 122°26'4 8.1
2017-Dec-15 12:30N 37°49' W 122°31'1 1.0
2017-Dec-15 12:00N 37°49' W 122°31'2 4.3
2017-Dec-15 11:31N 37°49' W 122°28'510.9
2017-Dec-15 11:00N 37°54' W 122°25'2 3.6
2017-Dec-15 10:25N 37°54' W 122°22'0 0.0
2017-Dec-15 09:58N 37°54' W 122°22'0 0.0
2017-Dec-15 09:28N 37°54' W 122°22'0 1.0
2017-Dec-15 09:00N 37°55' W 122°22'0 0.3
2017-Dec-15 08:30N 37°54' W 122°22'2 3.3
2017-Dec-15 08:01N 37°54' W 122°24'1 2.9
2017-Dec-15 07:30N 37°53' W 122°25'2 3.2
2017-Dec-15 07:00N 37°55' W 122°25'1 1.1
2017-Dec-15 06:30N 37°55' W 122°25'0 0.0
2017-Dec-15 05:59N 37°55' W 122°25'0 0.1
2017-Dec-15 05:30N 37°55' W 122°25'0 0.0
2017-Dec-15 05:00N 37°55' W 122°25'0 0.7
2017-Dec-15 04:30N 37°55' W 122°25'4 8.0
2017-Dec-15 04:00N 37°51' W 122°24'7 4.4
2017-Dec-15 02:31N 37°48' W 122°17'1 0.8
2017-Dec-15 01:01N 37°48' W 122°19'0 0.1
2017-Dec-15 00:30N 37°48' W 122°19'9 1.5
2017-Dec-14 18:27N 37°55' W 122°24'0 0.0
2017-Dec-14 18:00N 37°55' W 122°24'0 0.0
2017-Dec-14 17:30N 37°55' W 122°24'0 0.1
2017-Dec-14 17:00N 37°55' W 122°25'0 0.4
2017-Dec-14 16:30N 37°55' W 122°25'0 0.1
2017-Dec-14 16:00N 37°55' W 122°25'2 1.9
2017-Dec-14 15:00N 37°54' W 122°25'2 3.2
2017-Dec-14 14:27N 37°55' W 122°25'0 0.1
2017-Dec-14 13:57N 37°55' W 122°24'0 0.1
2017-Dec-14 13:30N 37°55' W 122°25'0 0.0
2017-Dec-14 13:00N 37°55' W 122°25'0 0.0
2017-Dec-14 12:30N 37°55' W 122°25'0 0.0
2017-Dec-14 12:00N 37°55' W 122°25'0 0.0
2017-Dec-14 11:30N 37°55' W 122°25'0 0.0
2017-Dec-14 11:00N 37°55' W 122°25'0 0.1
2017-Dec-14 10:30N 37°55' W 122°24'0 0.0
2017-Dec-14 10:00N 37°55' W 122°24'0 0.1
2017-Dec-14 09:30N 37°55' W 122°25'0 0.1
2017-Dec-14 09:00N 37°55' W 122°24'0 0.1
2017-Dec-14 08:30N 37°55' W 122°25'0 0.1
2017-Dec-14 08:00N 37°55' W 122°24'0 0.1
2017-Dec-14 07:30N 37°55' W 122°25'0 0.0
2017-Dec-14 06:57N 37°55' W 122°25'0 0.0
2017-Dec-14 06:30N 37°55' W 122°25'0 0.1
2017-Dec-14 06:00N 37°55' W 122°24'0 0.1
2017-Dec-14 05:30N 37°55' W 122°25'0 0.0
2017-Dec-14 04:57N 37°55' W 122°25'0 0.0
2017-Dec-14 04:27N 37°55' W 122°25'0 0.0
2017-Dec-14 03:57N 37°55' W 122°25'0 0.0
2017-Dec-14 03:30N 37°55' W 122°25'0 0.3
2017-Dec-14 03:01N 37°55' W 122°25'1 1.2
2017-Dec-14 02:31N 37°56' W 122°25'0 0.1
2017-Dec-14 02:01N 37°56' W 122°25'0 0.4
2017-Dec-14 01:31N 37°55' W 122°25'0 0.5
2017-Dec-14 00:58N 37°55' W 122°25'0 0.0
2017-Dec-14 00:28N 37°55' W 122°25'0 0.0
2017-Dec-13 23:58N 37°55' W 122°25'0 0.0
2017-Dec-13 23:28N 37°55' W 122°25'0 0.0
2017-Dec-13 22:58N 37°55' W 122°25'0 0.0
2017-Dec-13 22:28N 37°55' W 122°25'0 0.0
2017-Dec-13 21:58N 37°55' W 122°25'0 0.1
2017-Dec-13 21:28N 37°55' W 122°24'0 0.1
2017-Dec-13 20:58N 37°55' W 122°25'0 0.1
2017-Dec-13 20:28N 37°55' W 122°24'0 0.1
2017-Dec-13 19:58N 37°55' W 122°25'0 0.0
2017-Dec-13 19:28N 37°55' W 122°25'0 0.0
2017-Dec-13 18:58N 37°55' W 122°25'0 0.0
2017-Dec-13 18:28N 37°55' W 122°25'0 0.0
2017-Dec-13 17:58N 37°55' W 122°25'0 0.1
2017-Dec-13 17:30N 37°55' W 122°24'4 7.8
2017-Dec-13 17:00N 37°51' W 122°24'3 5.6
2017-Dec-13 16:30N 37°49' W 122°22'0 0.0
2017-Dec-13 16:00N 37°49' W 122°22'2 4.5
2017-Dec-13 15:30N 37°51' W 122°23'3 5.5
2017-Dec-13 15:00N 37°53' W 122°25'2 3.7
2017-Dec-13 14:30N 37°54' W 122°23'1 2.1
2017-Dec-13 14:00N 37°55' W 122°22'0 0.2
2017-Dec-13 13:30N 37°55' W 122°22'3 5.7
2017-Dec-13 13:00N 37°53' W 122°25'5 9.4
2017-Dec-13 12:30N 37°49' W 122°22'1 2.8
2017-Dec-13 12:00N 37°49' W 122°20'0 0.0
2017-Dec-13 11:24N 37°49' W 122°20'0 0.0
2017-Dec-13 11:00N 37°49' W 122°20'0 0.0
2017-Dec-13 10:30N 37°49' W 122°20'0 0.0
2017-Dec-13 09:57N 37°49' W 122°20'0 0.0
2017-Dec-13 09:30N 37°49' W 122°20'0 0.0
2017-Dec-13 09:00N 37°49' W 122°20'0 0.0
2017-Dec-13 08:30N 37°49' W 122°20'0 0.0
2017-Dec-13 08:00N 37°49' W 122°20'0 0.0
2017-Dec-13 07:30N 37°49' W 122°20'0 0.0
2017-Dec-13 07:00N 37°49' W 122°20'1 1.3
2017-Dec-13 06:30N 37°48' W 122°20'2 4.3
2017-Dec-13 06:01N 37°48' W 122°17'1 2.0
2017-Dec-13 05:31N 37°48' W 122°19'2 4.9
2017-Dec-13 05:01N 37°48' W 122°22'3 5.9
2017-Dec-13 04:31N 37°51' W 122°24'5 9.1
2017-Dec-13 04:00N 37°55' W 122°25'0 0.4
2017-Dec-13 03:25N 37°55' W 122°25'0 0.0
2017-Dec-13 03:01N 37°55' W 122°25'0 0.7
2017-Dec-13 02:30N 37°56' W 122°25'0 0.5
2017-Dec-13 02:01N 37°55' W 122°25'2 4.6
2017-Dec-13 01:31N 37°53' W 122°25'2 3.3
2017-Dec-13 01:00N 37°54' W 122°23'1 1.8
2017-Dec-13 00:31N 37°54' W 122°22'0 0.0
2017-Dec-13 00:01N 37°54' W 122°22'0 0.0
2017-Dec-12 23:30N 37°54' W 122°22'0 0.0
2017-Dec-12 23:00N 37°54' W 122°22'0 0.0
2017-Dec-12 22:30N 37°54' W 122°22'0 0.0
2017-Dec-12 22:00N 37°54' W 122°22'0 0.0
2017-Dec-12 21:30N 37°54' W 122°22'0 0.0
2017-Dec-12 21:00N 37°54' W 122°22'0 0.0
2017-Dec-12 20:31N 37°54' W 122°22'0 1.0
2017-Dec-12 20:00N 37°54' W 122°23'3 5.0
2017-Dec-12 19:30N 37°52' W 122°24'510.2
2017-Dec-12 19:01N 37°48' W 122°20'2 3.6
2017-Dec-12 18:30N 37°48' W 122°18'0 0.5
2017-Dec-12 18:01N 37°48' W 122°17'0 0.0
2017-Dec-12 17:30N 37°48' W 122°17'0 0.0
2017-Dec-12 17:01N 37°48' W 122°17'2 5.0
2017-Dec-12 16:31N 37°48' W 122°20'5 9.0
2017-Dec-12 16:00N 37°52' W 122°24'4 7.8
2017-Dec-12 15:30N 37°55' W 122°25'3 6.0
2017-Dec-12 15:00N 37°54' W 122°22'1 2.0
2017-Dec-12 14:30N 37°55' W 122°22'1 1.9
2017-Dec-12 14:01N 37°54' W 122°22'3 6.2
2017-Dec-12 13:30N 37°51' W 122°24'5 9.6
2017-Dec-12 13:01N 37°47' W 122°22'1 2.5
2017-Dec-12 12:30N 37°45' W 122°22'3 5.4
2017-Dec-12 12:00N 37°48' W 122°23'3 6.2
2017-Dec-12 11:31N 37°51' W 122°24'3 6.7
2017-Dec-12 11:00N 37°54' W 122°24'1 2.0
2017-Dec-12 10:28N 37°54' W 122°22'0 0.0
2017-Dec-12 09:58N 37°54' W 122°22'0 0.0
2017-Dec-12 09:28N 37°54' W 122°22'0 0.0
2017-Dec-12 08:59N 37°54' W 122°22'0 0.0
2017-Dec-12 08:29N 37°54' W 122°22'0 0.0
2017-Dec-12 07:58N 37°54' W 122°22'0 0.0
2017-Dec-12 07:29N 37°54' W 122°22'0 0.0
2017-Dec-12 06:55N 37°54' W 122°22'0 0.0
2017-Dec-12 06:28N 37°54' W 122°22'0 0.0
2017-Dec-12 05:58N 37°54' W 122°22'0 0.0
2017-Dec-12 05:28N 37°54' W 122°22'0 0.0
2017-Dec-12 04:58N 37°54' W 122°22'0 0.0
2017-Dec-12 04:28N 37°54' W 122°22'0 0.0
2017-Dec-12 03:58N 37°54' W 122°22'0 0.0
2017-Dec-12 03:28N 37°54' W 122°22'0 0.0
2017-Dec-12 02:58N 37°54' W 122°22'0 0.0
2017-Dec-12 02:28N 37°54' W 122°22'0 0.0
2017-Dec-12 01:58N 37°54' W 122°22'0 0.0
2017-Dec-12 01:28N 37°54' W 122°22'0 0.0
2017-Dec-12 00:58N 37°54' W 122°22'0 0.0
2017-Dec-12 00:28N 37°54' W 122°22'0 0.0
2017-Dec-11 23:58N 37°54' W 122°22'0 0.0
2017-Dec-11 23:25N 37°54' W 122°22'0 0.0
2017-Dec-11 22:58N 37°54' W 122°22'0 0.0
2017-Dec-11 22:25N 37°54' W 122°22'0 0.0
2017-Dec-11 21:58N 37°54' W 122°22'0 0.0
2017-Dec-11 21:28N 37°54' W 122°22'0 0.0
2017-Dec-11 20:55N 37°54' W 122°22'0 0.0
2017-Dec-11 20:28N 37°54' W 122°22'0 0.0
2017-Dec-11 19:58N 37°54' W 122°22'0 0.0
2017-Dec-11 19:28N 37°54' W 122°22'0 0.0
2017-Dec-11 18:58N 37°54' W 122°22'0 0.0
2017-Dec-11 18:28N 37°54' W 122°22'0 0.0
2017-Dec-11 17:58N 37°54' W 122°22'0 0.1
2017-Dec-11 17:31N 37°54' W 122°22'1 1.8
2017-Dec-11 17:00N 37°55' W 122°22'0 0.2
2017-Dec-11 16:30N 37°55' W 122°22'0 0.4
2017-Dec-11 16:00N 37°55' W 122°22'3 5.6
2017-Dec-11 15:30N 37°54' W 122°25'510.7
2017-Dec-11 15:00N 37°49' W 122°22'3 6.5
2017-Dec-11 14:30N 37°48' W 122°18'0 0.9
2017-Dec-11 14:00N 37°48' W 122°17'1 2.4
2017-Dec-11 13:30N 37°48' W 122°19'3 6.1
2017-Dec-11 13:00N 37°47' W 122°23'1 2.2
2017-Dec-11 12:31N 37°48' W 122°22'1 2.9
2017-Dec-11 12:00N 37°49' W 122°20'0 0.0
2017-Dec-11 11:30N 37°49' W 122°20'0 0.0
2017-Dec-11 11:00N 37°49' W 122°20'0 0.0
2017-Dec-11 10:30N 37°49' W 122°20'0 0.0
2017-Dec-11 10:00N 37°49' W 122°20'0 0.0
2017-Dec-11 09:30N 37°49' W 122°20'0 0.0
2017-Dec-11 09:00N 37°49' W 122°20'0 0.0
2017-Dec-11 08:30N 37°49' W 122°20'0 0.0
2017-Dec-11 08:00N 37°49' W 122°20'0 0.0
2017-Dec-11 07:30N 37°49' W 122°20'0 0.0
2017-Dec-11 07:00N 37°49' W 122°20'0 0.0
2017-Dec-11 06:30N 37°49' W 122°20'0 0.0
2017-Dec-11 06:00N 37°49' W 122°20'0 0.0
2017-Dec-11 05:30N 37°49' W 122°20'0 0.0
2017-Dec-11 05:00N 37°49' W 122°20'0 0.0
2017-Dec-11 04:30N 37°49' W 122°20'0 0.0
2017-Dec-11 04:00N 37°49' W 122°20'0 0.0
2017-Dec-11 03:30N 37°49' W 122°20'0 0.0
2017-Dec-11 03:00N 37°49' W 122°20'0 0.0
2017-Dec-11 02:30N 37°49' W 122°20'0 0.0
2017-Dec-11 02:00N 37°49' W 122°20'0 0.0
2017-Dec-11 01:30N 37°49' W 122°20'1 1.9
2017-Dec-11 01:01N 37°48' W 122°19'0 0.1
2017-Dec-11 00:30N 37°48' W 122°19'4 8.6
2017-Dec-11 00:00N 37°51' W 122°23'3 6.9
2017-Dec-10 23:30N 37°54' W 122°24'1 2.3
2017-Dec-10 23:00N 37°54' W 122°22'0 0.0
2017-Dec-10 22:30N 37°54' W 122°22'0 0.0
2017-Dec-10 22:00N 37°54' W 122°22'0 0.0
2017-Dec-10 21:30N 37°54' W 122°22'0 0.0
2017-Dec-10 21:00N 37°54' W 122°22'0 0.0
2017-Dec-10 20:30N 37°54' W 122°22'0 0.0
2017-Dec-10 20:00N 37°54' W 122°22'0 0.0
2017-Dec-10 19:30N 37°54' W 122°22'0 0.0
2017-Dec-10 19:00N 37°54' W 122°22'0 0.0
2017-Dec-10 18:30N 37°54' W 122°22'0 0.0
2017-Dec-10 18:00N 37°54' W 122°22'0 0.0
2017-Dec-10 17:30N 37°54' W 122°22'0 0.0
2017-Dec-10 17:00N 37°54' W 122°22'0 0.0
2017-Dec-10 16:30N 37°54' W 122°22'0 0.0
2017-Dec-10 16:00N 37°54' W 122°22'0 0.0
2017-Dec-10 15:30N 37°54' W 122°22'1 1.4
2017-Dec-10 15:01N 37°54' W 122°23'3 6.4
2017-Dec-10 14:30N 37°51' W 122°23'4 8.8
2017-Dec-10 14:00N 37°48' W 122°19'0 0.0
2017-Dec-10 13:30N 37°48' W 122°19'2 3.1
2017-Dec-10 13:00N 37°48' W 122°17'1 2.3
2017-Dec-10 12:30N 37°48' W 122°19'3 6.7
2017-Dec-10 12:01N 37°48' W 122°23'1 1.1
2017-Dec-10 11:28N 37°48' W 122°24'0 0.0
2017-Dec-10 10:58N 37°48' W 122°24'0 0.0
2017-Dec-10 10:25N 37°48' W 122°24'0 0.0
2017-Dec-10 09:55N 37°48' W 122°24'0 0.0
2017-Dec-10 09:28N 37°48' W 122°24'0 0.0
2017-Dec-10 08:58N 37°48' W 122°24'0 0.0
2017-Dec-10 08:28N 37°48' W 122°24'0 0.0
2017-Dec-10 07:58N 37°48' W 122°24'0 0.0
2017-Dec-10 07:25N 37°48' W 122°24'0 0.0
2017-Dec-10 06:55N 37°48' W 122°24'0 0.0
2017-Dec-10 06:28N 37°48' W 122°24'0 0.0
2017-Dec-10 05:58N 37°48' W 122°24'2 3.4
2017-Dec-10 05:30N 37°49' W 122°26'4 8.3
2017-Dec-10 05:00N 37°49' W 122°31'1 1.2
2017-Dec-10 04:31N 37°48' W 122°31'5 9.0
2017-Dec-10 04:00N 37°50' W 122°25'3 6.9
2017-Dec-10 03:30N 37°54' W 122°26'0 0.3
2017-Dec-10 03:01N 37°54' W 122°26'1 2.7
2017-Dec-10 02:30N 37°55' W 122°25'1 1.1
2017-Dec-10 01:59N 37°55' W 122°25'0 0.5
2017-Dec-10 01:30N 37°55' W 122°25'0 0.0
2017-Dec-10 01:00N 37°55' W 122°25'0 0.0
2017-Dec-10 00:30N 37°55' W 122°25'1 2.2
2017-Dec-10 00:00N 37°54' W 122°25'611.0
2017-Dec-09 23:30N 37°50' W 122°22'2 3.6
2017-Dec-09 23:01N 37°49' W 122°20'1 2.9
2017-Dec-09 22:30N 37°49' W 122°21'611.6
2017-Dec-09 22:00N 37°54' W 122°25'2 3.2
2017-Dec-09 21:30N 37°56' W 122°25'0 0.1
2017-Dec-09 21:01N 37°56' W 122°25'1 1.5
2017-Dec-09 20:30N 37°55' W 122°25'3 5.3
2017-Dec-09 20:00N 37°52' W 122°25'2 4.9
2017-Dec-09 19:31N 37°50' W 122°27'4 7.5
2017-Dec-09 19:00N 37°48' W 122°31'1 1.4
2017-Dec-09 18:30N 37°48' W 122°30'0 0.4
2017-Dec-09 18:00N 37°48' W 122°30'4 8.3
2017-Dec-09 17:30N 37°50' W 122°26'3 4.2
2017-Dec-09 16:44N 37°49' W 122°22'0 0.2
2017-Dec-09 16:29N 37°49' W 122°22'0 0.0
2017-Dec-09 15:56N 37°49' W 122°22'0 0.0
2017-Dec-09 15:26N 37°49' W 122°22'0 0.1
2017-Dec-09 14:56N 37°49' W 122°22'0 0.5
2017-Dec-09 14:30N 37°49' W 122°21'3 6.0
2017-Dec-09 14:00N 37°48' W 122°18'0 0.7
2017-Dec-09 13:30N 37°48' W 122°18'1 2.5
2017-Dec-09 13:01N 37°48' W 122°19'0 0.1
2017-Dec-09 12:30N 37°48' W 122°19'5 9.2
2017-Dec-09 12:00N 37°51' W 122°23'3 6.8
2017-Dec-09 11:31N 37°54' W 122°24'1 2.7
2017-Dec-09 11:00N 37°54' W 122°22'0 0.0
2017-Dec-09 10:31N 37°54' W 122°22'0 0.0
2017-Dec-09 10:00N 37°54' W 122°22'0 0.0
2017-Dec-09 09:30N 37°54' W 122°22'0 0.1
2017-Dec-09 09:00N 37°54' W 122°22'0 0.1
2017-Dec-09 08:31N 37°54' W 122°22'0 0.0
2017-Dec-09 08:00N 37°54' W 122°22'0 0.0
2017-Dec-09 07:31N 37°54' W 122°22'0 0.0
2017-Dec-09 07:01N 37°54' W 122°22'0 0.0
2017-Dec-09 06:30N 37°54' W 122°22'0 0.0
2017-Dec-09 06:00N 37°54' W 122°22'0 0.0
2017-Dec-09 05:30N 37°54' W 122°22'0 0.0
2017-Dec-09 05:00N 37°54' W 122°22'0 0.0
2017-Dec-09 04:30N 37°54' W 122°22'0 0.0
2017-Dec-09 04:00N 37°54' W 122°22'0 0.0
2017-Dec-09 03:30N 37°54' W 122°22'1 2.4
2017-Dec-09 03:00N 37°54' W 122°24'1 2.6
2017-Dec-09 02:30N 37°56' W 122°25'1 1.3
2017-Dec-09 02:00N 37°55' W 122°25'2 3.8
2017-Dec-09 01:30N 37°54' W 122°22'0 0.1
2017-Dec-09 01:00N 37°54' W 122°22'0 0.0
2017-Dec-09 00:30N 37°54' W 122°22'0 0.0
2017-Dec-09 00:00N 37°54' W 122°22'0 0.0
2017-Dec-08 23:30N 37°54' W 122°22'1 2.2
2017-Dec-08 23:00N 37°54' W 122°24'1 2.6
2017-Dec-08 22:30N 37°55' W 122°25'1 2.0
2017-Dec-08 22:00N 37°56' W 122°25'0 0.2
2017-Dec-08 21:30N 37°56' W 122°25'0 0.2
2017-Dec-08 21:00N 37°56' W 122°25'0 0.8
2017-Dec-08 20:30N 37°55' W 122°25'0 0.2
2017-Dec-08 20:00N 37°55' W 122°25'1 2.6
2017-Dec-08 19:30N 37°54' W 122°25'4 8.6
2017-Dec-08 19:00N 37°50' W 122°24'5 9.1
2017-Dec-08 18:30N 37°49' W 122°30'1 1.4
2017-Dec-08 18:00N 37°48' W 122°30'0 0.4
2017-Dec-08 17:30N 37°48' W 122°30'4 8.1
2017-Dec-08 17:00N 37°52' W 122°27'4 8.6
2017-Dec-08 16:30N 37°55' W 122°25'0 0.0
2017-Dec-08 16:00N 37°55' W 122°25'0 0.0
2017-Dec-08 15:30N 37°55' W 122°25'0 0.0
2017-Dec-08 15:00N 37°55' W 122°25'0 0.4
2017-Dec-08 14:29N 37°55' W 122°25'0 0.4
2017-Dec-08 14:00N 37°55' W 122°25'1 2.5
2017-Dec-08 13:30N 37°54' W 122°25'1 1.9
2017-Dec-08 13:00N 37°53' W 122°25'2 4.4
2017-Dec-08 12:29N 37°55' W 122°25'0 0.0
2017-Dec-08 11:59N 37°55' W 122°25'0 0.0
2017-Dec-08 11:29N 37°55' W 122°25'0 0.1
2017-Dec-08 10:59N 37°55' W 122°24'0 0.1
2017-Dec-08 10:29N 37°55' W 122°25'0 0.0
2017-Dec-08 09:59N 37°55' W 122°25'0 0.0
2017-Dec-08 09:29N 37°55' W 122°25'0 0.0
2017-Dec-08 08:59N 37°55' W 122°25'0 0.0
2017-Dec-08 08:29N 37°55' W 122°25'0 0.0
2017-Dec-08 07:59N 37°55' W 122°25'0 0.0
2017-Dec-08 07:29N 37°55' W 122°25'0 0.0
2017-Dec-08 06:59N 37°55' W 122°25'0 0.1
2017-Dec-08 06:29N 37°55' W 122°24'0 0.1
2017-Dec-08 05:59N 37°55' W 122°25'0 0.0
2017-Dec-08 05:29N 37°55' W 122°25'0 0.0
2017-Dec-08 04:59N 37°55' W 122°25'0 0.1
2017-Dec-08 04:29N 37°55' W 122°24'0 0.1
2017-Dec-08 03:59N 37°55' W 122°25'0 0.0
2017-Dec-08 03:29N 37°55' W 122°25'0 0.1
2017-Dec-08 02:59N 37°55' W 122°24'0 0.1
2017-Dec-08 02:20N 37°55' W 122°25'0 0.0
2017-Dec-08 01:53N 37°55' W 122°25'0 0.0
2017-Dec-08 01:29N 37°55' W 122°25'0 0.0
2017-Dec-08 00:59N 37°55' W 122°25'0 0.0
2017-Dec-08 00:29N 37°55' W 122°25'0 0.0
2017-Dec-08 00:00N 37°55' W 122°25'0 0.0
2017-Dec-07 23:27N 37°55' W 122°25'0 0.0
2017-Dec-07 22:56N 37°55' W 122°25'0 0.0
2017-Dec-07 22:31N 37°55' W 122°25'0 0.0
2017-Dec-07 22:00N 37°55' W 122°25'0 0.0
2017-Dec-07 21:30N 37°55' W 122°25'0 1.0
2017-Dec-07 21:00N 37°56' W 122°25'0 0.3
2017-Dec-07 20:30N 37°56' W 122°25'2 4.4
2017-Dec-07 20:00N 37°53' W 122°25'3 6.5
2017-Dec-07 19:30N 37°50' W 122°27'4 7.6
2017-Dec-07 19:00N 37°48' W 122°31'1 1.5
2017-Dec-07 18:30N 37°48' W 122°30'1 2.3
2017-Dec-07 18:00N 37°49' W 122°29'510.0
2017-Dec-07 17:30N 37°50' W 122°23'1 2.7
2017-Dec-07 17:00N 37°49' W 122°22'0 0.1
2017-Dec-07 16:30N 37°49' W 122°22'0 0.1
2017-Dec-07 16:00N 37°49' W 122°22'0 0.1
2017-Dec-07 15:30N 37°49' W 122°22'  

Dump ship's entire track history